sensor_id;sensor_type;location;lat;lon;timestamp;temperature;humidity
12060;DHT22;6091;51.432;6.880;2024-01-07T00:02:21;24.10;36.30
12060;DHT22;6091;51.432;6.880;2024-01-07T00:04:48;24.10;36.40
12060;DHT22;6091;51.432;6.880;2024-01-07T00:07:15;24.00;36.40
12060;DHT22;6091;51.432;6.880;2024-01-07T00:09:43;23.90;37.00
12060;DHT22;6091;51.432;6.880;2024-01-07T00:12:10;23.90;36.50
12060;DHT22;6091;51.432;6.880;2024-01-07T00:14:37;23.80;36.40
12060;DHT22;6091;51.432;6.880;2024-01-07T00:17:05;23.80;36.50
12060;DHT22;6091;51.432;6.880;2024-01-07T00:19:34;23.80;36.50
12060;DHT22;6091;51.432;6.880;2024-01-07T00:22:04;23.70;36.50
12060;DHT22;6091;51.432;6.880;2024-01-07T00:24:31;23.70;36.60
12060;DHT22;6091;51.432;6.880;2024-01-07T00:26:59;23.60;36.50
12060;DHT22;6091;51.432;6.880;2024-01-07T00:29:27;23.60;36.60
12060;DHT22;6091;51.432;6.880;2024-01-07T00:31:55;23.50;36.60
12060;DHT22;6091;51.432;6.880;2024-01-07T00:34:22;23.50;36.70
12060;DHT22;6091;51.432;6.880;2024-01-07T00:37:05;23.50;36.70
12060;DHT22;6091;51.432;6.880;2024-01-07T00:39:51;23.40;36.70
12060;DHT22;6091;51.432;6.880;2024-01-07T00:42:41;23.40;36.80
12060;DHT22;6091;51.432;6.880;2024-01-07T00:45:09;23.40;36.90
12060;DHT22;6091;51.432;6.880;2024-01-07T00:47:38;23.30;36.70
12060;DHT22;6091;51.432;6.880;2024-01-07T00:50:08;23.30;36.80
12060;DHT22;6091;51.432;6.880;2024-01-07T00:52:35;23.30;37.00
12060;DHT22;6091;51.432;6.880;2024-01-07T00:55:05;23.30;37.00
12060;DHT22;6091;51.432;6.880;2024-01-07T00:57:33;23.20;36.90
12060;DHT22;6091;51.432;6.880;2024-01-07T01:00:04;23.20;37.00
12060;DHT22;6091;51.432;6.880;2024-01-07T01:02:33;23.20;37.00
12060;DHT22;6091;51.432;6.880;2024-01-07T01:05:00;23.10;37.00
12060;DHT22;6091;51.432;6.880;2024-01-07T01:07:28;23.10;37.00
12060;DHT22;6091;51.432;6.880;2024-01-07T01:09:55;23.10;37.10
12060;DHT22;6091;51.432;6.880;2024-01-07T01:12:22;23.00;37.00
12060;DHT22;6091;51.432;6.880;2024-01-07T01:14:49;23.00;37.10
12060;DHT22;6091;51.432;6.880;2024-01-07T01:17:17;23.00;37.10
12060;DHT22;6091;51.432;6.880;2024-01-07T01:19:44;23.00;37.20
12060;DHT22;6091;51.432;6.880;2024-01-07T01:22:11;23.00;37.20
12060;DHT22;6091;51.432;6.880;2024-01-07T01:24:40;22.90;37.20
12060;DHT22;6091;51.432;6.880;2024-01-07T01:27:08;22.90;37.20
12060;DHT22;6091;51.432;6.880;2024-01-07T01:29:35;22.90;37.30
12060;DHT22;6091;51.432;6.880;2024-01-07T01:32:02;22.90;37.50
12060;DHT22;6091;51.432;6.880;2024-01-07T01:34:29;22.90;37.30
12060;DHT22;6091;51.432;6.880;2024-01-07T01:36:57;22.80;37.30
12060;DHT22;6091;51.432;6.880;2024-01-07T01:39:24;22.80;37.30
12060;DHT22;6091;51.432;6.880;2024-01-07T01:41:51;22.80;37.40
12060;DHT22;6091;51.432;6.880;2024-01-07T01:44:18;22.80;37.50
12060;DHT22;6091;51.432;6.880;2024-01-07T01:46:45;22.80;37.40
12060;DHT22;6091;51.432;6.880;2024-01-07T01:49:14;22.70;37.40
12060;DHT22;6091;51.432;6.880;2024-01-07T01:51:42;22.70;37.40
12060;DHT22;6091;51.432;6.880;2024-01-07T01:54:10;22.70;37.40
12060;DHT22;6091;51.432;6.880;2024-01-07T01:56:38;22.70;37.50
12060;DHT22;6091;51.432;6.880;2024-01-07T01:59:06;22.60;37.40
12060;DHT22;6091;51.432;6.880;2024-01-07T02:01:33;22.60;37.50
12060;DHT22;6091;51.432;6.880;2024-01-07T02:04:01;22.60;37.50
12060;DHT22;6091;51.432;6.880;2024-01-07T02:06:28;22.60;37.50
12060;DHT22;6091;51.432;6.880;2024-01-07T02:08:55;22.60;38.20
12060;DHT22;6091;51.432;6.880;2024-01-07T02:11:23;22.60;37.60
12060;DHT22;6091;51.432;6.880;2024-01-07T02:13:50;22.50;37.60
12060;DHT22;6091;51.432;6.880;2024-01-07T02:16:18;22.50;37.60
12060;DHT22;6091;51.432;6.880;2024-01-07T02:18:46;22.50;37.60
12060;DHT22;6091;51.432;6.880;2024-01-07T02:21:14;22.40;37.60
12060;DHT22;6091;51.432;6.880;2024-01-07T02:23:42;22.50;37.70
12060;DHT22;6091;51.432;6.880;2024-01-07T02:26:09;22.40;37.60
12060;DHT22;6091;51.432;6.880;2024-01-07T02:28:37;22.40;37.70
12060;DHT22;6091;51.432;6.880;2024-01-07T02:31:05;22.40;37.70
12060;DHT22;6091;51.432;6.880;2024-01-07T02:33:32;22.40;37.80
12060;DHT22;6091;51.432;6.880;2024-01-07T02:36:00;22.40;37.80
12060;DHT22;6091;51.432;6.880;2024-01-07T02:38:27;22.40;37.80
12060;DHT22;6091;51.432;6.880;2024-01-07T02:40:54;22.30;37.80
12060;DHT22;6091;51.432;6.880;2024-01-07T02:43:22;22.30;37.80
12060;DHT22;6091;51.432;6.880;2024-01-07T02:45:49;22.30;37.80
12060;DHT22;6091;51.432;6.880;2024-01-07T02:48:16;22.30;37.80
12060;DHT22;6091;51.432;6.880;2024-01-07T02:50:44;22.30;37.90
12060;DHT22;6091;51.432;6.880;2024-01-07T02:53:11;22.30;37.90
12060;DHT22;6091;51.432;6.880;2024-01-07T02:55:38;22.30;37.90
12060;DHT22;6091;51.432;6.880;2024-01-07T02:58:06;22.20;37.90
12060;DHT22;6091;51.432;6.880;2024-01-07T03:00:33;22.20;37.90
12060;DHT22;6091;51.432;6.880;2024-01-07T03:03:00;22.20;37.90
12060;DHT22;6091;51.432;6.880;2024-01-07T03:05:28;22.20;38.00
12060;DHT22;6091;51.432;6.880;2024-01-07T03:07:59;22.20;38.00
12060;DHT22;6091;51.432;6.880;2024-01-07T03:10:27;22.10;38.00
12060;DHT22;6091;51.432;6.880;2024-01-07T03:12:54;22.10;38.00
12060;DHT22;6091;51.432;6.880;2024-01-07T03:15:21;22.10;38.00
12060;DHT22;6091;51.432;6.880;2024-01-07T03:17:49;22.10;38.00
12060;DHT22;6091;51.432;6.880;2024-01-07T03:20:18;22.10;38.10
12060;DHT22;6091;51.432;6.880;2024-01-07T03:22:48;22.10;38.10
12060;DHT22;6091;51.432;6.880;2024-01-07T03:25:16;22.10;38.10
12060;DHT22;6091;51.432;6.880;2024-01-07T03:27:43;22.10;38.20
12060;DHT22;6091;51.432;6.880;2024-01-07T03:30:10;22.10;38.20
12060;DHT22;6091;51.432;6.880;2024-01-07T03:32:38;22.00;38.10
12060;DHT22;6091;51.432;6.880;2024-01-07T03:35:05;22.00;38.20
12060;DHT22;6091;51.432;6.880;2024-01-07T03:37:35;22.00;38.20
12060;DHT22;6091;51.432;6.880;2024-01-07T03:40:03;22.00;38.20
12060;DHT22;6091;51.432;6.880;2024-01-07T03:42:35;22.00;38.20
12060;DHT22;6091;51.432;6.880;2024-01-07T03:45:03;22.00;38.30
12060;DHT22;6091;51.432;6.880;2024-01-07T03:47:31;22.00;38.30
12060;DHT22;6091;51.432;6.880;2024-01-07T03:49:59;22.00;38.30
12060;DHT22;6091;51.432;6.880;2024-01-07T03:52:26;21.90;38.80
12060;DHT22;6091;51.432;6.880;2024-01-07T03:54:53;21.90;38.30
12060;DHT22;6091;51.432;6.880;2024-01-07T03:57:20;21.90;38.30
12060;DHT22;6091;51.432;6.880;2024-01-07T03:59:48;21.90;38.30
12060;DHT22;6091;51.432;6.880;2024-01-07T04:02:15;21.90;38.30
12060;DHT22;6091;51.432;6.880;2024-01-07T04:04:43;21.90;38.30
12060;DHT22;6091;51.432;6.880;2024-01-07T04:07:10;21.90;38.40
12060;DHT22;6091;51.432;6.880;2024-01-07T04:09:38;21.90;38.40
12060;DHT22;6091;51.432;6.880;2024-01-07T04:12:06;21.90;38.40
12060;DHT22;6091;51.432;6.880;2024-01-07T04:14:33;21.80;38.40
12060;DHT22;6091;51.432;6.880;2024-01-07T04:17:01;21.80;38.40
12060;DHT22;6091;51.432;6.880;2024-01-07T04:19:28;21.80;38.40
12060;DHT22;6091;51.432;6.880;2024-01-07T04:21:55;21.80;38.40
12060;DHT22;6091;51.432;6.880;2024-01-07T04:24:22;21.80;38.50
12060;DHT22;6091;51.432;6.880;2024-01-07T04:26:50;21.80;38.50
12060;DHT22;6091;51.432;6.880;2024-01-07T04:29:17;21.80;38.50
12060;DHT22;6091;51.432;6.880;2024-01-07T04:31:44;21.80;38.50
12060;DHT22;6091;51.432;6.880;2024-01-07T04:34:13;21.80;38.60
12060;DHT22;6091;51.432;6.880;2024-01-07T04:36:40;21.70;38.40
12060;DHT22;6091;51.432;6.880;2024-01-07T04:39:07;21.70;38.40
12060;DHT22;6091;51.432;6.880;2024-01-07T04:41:36;21.70;38.50
12060;DHT22;6091;51.432;6.880;2024-01-07T04:44:04;21.70;38.50
12060;DHT22;6091;51.432;6.880;2024-01-07T04:46:34;21.70;38.50
12060;DHT22;6091;51.432;6.880;2024-01-07T04:49:02;21.70;38.60
12060;DHT22;6091;51.432;6.880;2024-01-07T04:51:31;21.60;38.50
12060;DHT22;6091;51.432;6.880;2024-01-07T04:53:59;21.60;38.50
12060;DHT22;6091;51.432;6.880;2024-01-07T04:56:26;21.60;38.50
12060;DHT22;6091;51.432;6.880;2024-01-07T04:58:53;21.60;38.60
12060;DHT22;6091;51.432;6.880;2024-01-07T05:01:21;21.60;38.60
12060;DHT22;6091;51.432;6.880;2024-01-07T05:03:49;21.60;38.60
12060;DHT22;6091;51.432;6.880;2024-01-07T05:06:17;21.50;38.50
12060;DHT22;6091;51.432;6.880;2024-01-07T05:08:44;21.60;38.70
12060;DHT22;6091;51.432;6.880;2024-01-07T05:11:11;21.60;38.70
12060;DHT22;6091;51.432;6.880;2024-01-07T05:13:38;21.50;38.60
12060;DHT22;6091;51.432;6.880;2024-01-07T05:16:06;21.60;38.70
12060;DHT22;6091;51.432;6.880;2024-01-07T05:18:33;21.50;38.60
12060;DHT22;6091;51.432;6.880;2024-01-07T05:21:00;21.50;38.60
12060;DHT22;6091;51.432;6.880;2024-01-07T05:23:28;21.50;38.70
12060;DHT22;6091;51.432;6.880;2024-01-07T05:25:56;21.50;38.70
12060;DHT22;6091;51.432;6.880;2024-01-07T05:28:26;21.50;38.70
12060;DHT22;6091;51.432;6.880;2024-01-07T05:30:53;21.50;39.30
12060;DHT22;6091;51.432;6.880;2024-01-07T05:33:20;21.50;38.70
12060;DHT22;6091;51.432;6.880;2024-01-07T05:35:47;21.40;38.70
12060;DHT22;6091;51.432;6.880;2024-01-07T05:38:15;21.50;38.70
12060;DHT22;6091;51.432;6.880;2024-01-07T05:40:42;21.50;38.80
12060;DHT22;6091;51.432;6.880;2024-01-07T05:43:09;21.50;38.80
12060;DHT22;6091;51.432;6.880;2024-01-07T05:45:37;21.50;38.90
12060;DHT22;6091;51.432;6.880;2024-01-07T05:48:06;21.50;38.80
12060;DHT22;6091;51.432;6.880;2024-01-07T05:50:33;21.40;38.80
12060;DHT22;6091;51.432;6.880;2024-01-07T05:53:01;21.40;38.80
12060;DHT22;6091;51.432;6.880;2024-01-07T05:55:32;21.10;38.60
12060;DHT22;6091;51.432;6.880;2024-01-07T05:57:59;21.40;38.80
12060;DHT22;6091;51.432;6.880;2024-01-07T06:00:26;21.30;38.80
12060;DHT22;6091;51.432;6.880;2024-01-07T06:02:54;21.40;38.90
12060;DHT22;6091;51.432;6.880;2024-01-07T06:05:21;21.40;38.90
12060;DHT22;6091;51.432;6.880;2024-01-07T06:07:49;21.40;38.90
12060;DHT22;6091;51.432;6.880;2024-01-07T06:10:16;21.30;38.80
12060;DHT22;6091;51.432;6.880;2024-01-07T06:12:44;21.30;38.90
12060;DHT22;6091;51.432;6.880;2024-01-07T06:15:11;21.30;38.90
12060;DHT22;6091;51.432;6.880;2024-01-07T06:17:39;21.30;38.90
12060;DHT22;6091;51.432;6.880;2024-01-07T06:20:07;21.30;38.90
12060;DHT22;6091;51.432;6.880;2024-01-07T06:22:35;21.30;38.90
12060;DHT22;6091;51.432;6.880;2024-01-07T06:25:02;21.30;38.90
12060;DHT22;6091;51.432;6.880;2024-01-07T06:27:35;21.30;39.00
12060;DHT22;6091;51.432;6.880;2024-01-07T06:30:02;21.30;39.00
12060;DHT22;6091;51.432;6.880;2024-01-07T06:32:40;21.30;39.00
12060;DHT22;6091;51.432;6.880;2024-01-07T06:35:11;21.30;39.10
12060;DHT22;6091;51.432;6.880;2024-01-07T06:37:39;21.30;39.00
12060;DHT22;6091;51.432;6.880;2024-01-07T06:40:06;21.20;38.90
12060;DHT22;6091;51.432;6.880;2024-01-07T06:42:37;21.20;39.00
12060;DHT22;6091;51.432;6.880;2024-01-07T06:45:05;21.30;39.10
12060;DHT22;6091;51.432;6.880;2024-01-07T06:47:34;21.20;38.90
12060;DHT22;6091;51.432;6.880;2024-01-07T06:50:01;21.20;39.00
12060;DHT22;6091;51.432;6.880;2024-01-07T06:52:32;21.20;39.00
12060;DHT22;6091;51.432;6.880;2024-01-07T06:55:02;21.20;39.00
12060;DHT22;6091;51.432;6.880;2024-01-07T06:57:54;21.20;39.00
12060;DHT22;6091;51.432;6.880;2024-01-07T07:00:23;21.20;39.20
12060;DHT22;6091;51.432;6.880;2024-01-07T07:02:51;21.20;39.00
12060;DHT22;6091;51.432;6.880;2024-01-07T07:05:18;21.10;39.00
12060;DHT22;6091;51.432;6.880;2024-01-07T07:07:45;21.10;39.00
12060;DHT22;6091;51.432;6.880;2024-01-07T07:10:13;21.10;39.00
12060;DHT22;6091;51.432;6.880;2024-01-07T07:12:40;21.10;39.00
12060;DHT22;6091;51.432;6.880;2024-01-07T07:15:17;21.20;39.40
12060;DHT22;6091;51.432;6.880;2024-01-07T07:17:45;21.10;39.00
12060;DHT22;6091;51.432;6.880;2024-01-07T07:20:12;21.10;39.00
12060;DHT22;6091;51.432;6.880;2024-01-07T07:22:39;21.10;39.10
12060;DHT22;6091;51.432;6.880;2024-01-07T07:25:07;21.10;39.10
12060;DHT22;6091;51.432;6.880;2024-01-07T07:27:35;21.10;39.10
12060;DHT22;6091;51.432;6.880;2024-01-07T07:30:03;21.10;39.10
12060;DHT22;6091;51.432;6.880;2024-01-07T07:32:32;21.10;39.10
12060;DHT22;6091;51.432;6.880;2024-01-07T07:34:59;21.00;39.00
12060;DHT22;6091;51.432;6.880;2024-01-07T07:37:27;21.10;39.10
12060;DHT22;6091;51.432;6.880;2024-01-07T07:39:54;21.00;39.10
12060;DHT22;6091;51.432;6.880;2024-01-07T07:42:22;21.10;39.20
12060;DHT22;6091;51.432;6.880;2024-01-07T07:44:49;21.10;39.20
12060;DHT22;6091;51.432;6.880;2024-01-07T07:47:17;21.10;39.20
12060;DHT22;6091;51.432;6.880;2024-01-07T07:49:44;21.10;39.20
12060;DHT22;6091;51.432;6.880;2024-01-07T07:52:12;21.00;39.20
12060;DHT22;6091;51.432;6.880;2024-01-07T07:54:42;21.00;39.10
12060;DHT22;6091;51.432;6.880;2024-01-07T07:57:09;21.10;39.30
12060;DHT22;6091;51.432;6.880;2024-01-07T07:59:36;21.00;39.20
12060;DHT22;6091;51.432;6.880;2024-01-07T08:02:03;21.00;39.20
12060;DHT22;6091;51.432;6.880;2024-01-07T08:04:30;21.00;39.20
12060;DHT22;6091;51.432;6.880;2024-01-07T08:06:58;21.00;39.20
12060;DHT22;6091;51.432;6.880;2024-01-07T08:09:27;21.00;39.20
12060;DHT22;6091;51.432;6.880;2024-01-07T08:11:54;21.00;39.20
12060;DHT22;6091;51.432;6.880;2024-01-07T08:14:22;21.00;39.30
12060;DHT22;6091;51.432;6.880;2024-01-07T08:16:49;21.00;39.30
12060;DHT22;6091;51.432;6.880;2024-01-07T08:19:16;21.00;39.40
12060;DHT22;6091;51.432;6.880;2024-01-07T08:21:43;21.00;39.50
12060;DHT22;6091;51.432;6.880;2024-01-07T08:24:11;21.00;40.20
12060;DHT22;6091;51.432;6.880;2024-01-07T08:26:38;21.00;39.60
12060;DHT22;6091;51.432;6.880;2024-01-07T08:29:06;21.00;39.60
12060;DHT22;6091;51.432;6.880;2024-01-07T08:31:33;21.00;39.70
12060;DHT22;6091;51.432;6.880;2024-01-07T08:34:00;21.00;39.80
12060;DHT22;6091;51.432;6.880;2024-01-07T08:36:28;21.00;40.40
12060;DHT22;6091;51.432;6.880;2024-01-07T08:38:56;21.00;39.80
12060;DHT22;6091;51.432;6.880;2024-01-07T08:41:23;21.10;39.90
12060;DHT22;6091;51.432;6.880;2024-01-07T08:43:50;21.10;40.00
12060;DHT22;6091;51.432;6.880;2024-01-07T08:46:21;21.10;40.00
12060;DHT22;6091;51.432;6.880;2024-01-07T08:48:49;21.10;40.10
12060;DHT22;6091;51.432;6.880;2024-01-07T08:51:17;21.10;40.00
12060;DHT22;6091;51.432;6.880;2024-01-07T08:53:44;21.10;40.00
12060;DHT22;6091;51.432;6.880;2024-01-07T08:56:12;21.10;40.00
12060;DHT22;6091;51.432;6.880;2024-01-07T08:58:41;21.10;40.00
12060;DHT22;6091;51.432;6.880;2024-01-07T09:01:10;21.10;40.00
12060;DHT22;6091;51.432;6.880;2024-01-07T09:03:37;21.00;41.00
12060;DHT22;6091;51.432;6.880;2024-01-07T09:06:05;21.00;40.70
12060;DHT22;6091;51.432;6.880;2024-01-07T09:08:32;21.00;40.60
12060;DHT22;6091;51.432;6.880;2024-01-07T09:11:06;21.10;40.40
12060;DHT22;6091;51.432;6.880;2024-01-07T09:13:34;21.10;40.40
12060;DHT22;6091;51.432;6.880;2024-01-07T09:16:01;21.10;41.20
12060;DHT22;6091;51.432;6.880;2024-01-07T09:18:29;21.00;40.80
12060;DHT22;6091;51.432;6.880;2024-01-07T09:20:57;21.10;40.70
12060;DHT22;6091;51.432;6.880;2024-01-07T09:23:25;21.10;40.50
12060;DHT22;6091;51.432;6.880;2024-01-07T09:25:52;21.20;40.40
12060;DHT22;6091;51.432;6.880;2024-01-07T09:28:19;21.20;40.30
12060;DHT22;6091;51.432;6.880;2024-01-07T09:30:46;21.20;40.30
12060;DHT22;6091;51.432;6.880;2024-01-07T09:33:14;21.20;40.20
12060;DHT22;6091;51.432;6.880;2024-01-07T09:35:42;21.20;40.20
12060;DHT22;6091;51.432;6.880;2024-01-07T09:38:10;21.20;40.10
12060;DHT22;6091;51.432;6.880;2024-01-07T09:40:39;21.20;40.10
12060;DHT22;6091;51.432;6.880;2024-01-07T09:43:06;21.20;40.10
12060;DHT22;6091;51.432;6.880;2024-01-07T09:45:36;21.30;40.10
12060;DHT22;6091;51.432;6.880;2024-01-07T09:48:07;21.20;40.10
12060;DHT22;6091;51.432;6.880;2024-01-07T09:50:34;21.20;40.00
12060;DHT22;6091;51.432;6.880;2024-01-07T09:53:02;21.20;40.10
12060;DHT22;6091;51.432;6.880;2024-01-07T09:55:40;21.20;40.00
12060;DHT22;6091;51.432;6.880;2024-01-07T09:58:33;21.20;40.10
12060;DHT22;6091;51.432;6.880;2024-01-07T10:01:01;21.20;40.00
12060;DHT22;6091;51.432;6.880;2024-01-07T10:03:28;21.20;39.90
12060;DHT22;6091;51.432;6.880;2024-01-07T10:05:56;21.20;39.90
12060;DHT22;6091;51.432;6.880;2024-01-07T10:08:24;21.20;40.00
12060;DHT22;6091;51.432;6.880;2024-01-07T10:10:57;21.10;39.90
12060;DHT22;6091;51.432;6.880;2024-01-07T10:13:25;21.20;40.00
12060;DHT22;6091;51.432;6.880;2024-01-07T10:15:52;21.20;40.00
12060;DHT22;6091;51.432;6.880;2024-01-07T10:18:20;21.20;40.00
12060;DHT22;6091;51.432;6.880;2024-01-07T10:20:47;21.20;40.00
12060;DHT22;6091;51.432;6.880;2024-01-07T10:23:22;21.20;40.00
12060;DHT22;6091;51.432;6.880;2024-01-07T10:25:49;21.20;40.00
12060;DHT22;6091;51.432;6.880;2024-01-07T10:28:17;21.10;39.80
12060;DHT22;6091;51.432;6.880;2024-01-07T10:30:51;21.10;39.80
12060;DHT22;6091;51.432;6.880;2024-01-07T10:33:19;21.10;39.80
12060;DHT22;6091;51.432;6.880;2024-01-07T10:35:52;21.20;39.80
12060;DHT22;6091;51.432;6.880;2024-01-07T10:38:27;21.10;39.80
12060;DHT22;6091;51.432;6.880;2024-01-07T10:40:55;21.10;39.80
12060;DHT22;6091;51.432;6.880;2024-01-07T10:43:31;21.10;39.70
12060;DHT22;6091;51.432;6.880;2024-01-07T10:46:01;21.10;39.80
12060;DHT22;6091;51.432;6.880;2024-01-07T10:48:31;21.10;39.70
12060;DHT22;6091;51.432;6.880;2024-01-07T10:51:02;21.10;39.70
12060;DHT22;6091;51.432;6.880;2024-01-07T10:53:34;21.10;39.70
12060;DHT22;6091;51.432;6.880;2024-01-07T10:56:05;21.10;39.80
12060;DHT22;6091;51.432;6.880;2024-01-07T10:58:39;21.10;39.80
12060;DHT22;6091;51.432;6.880;2024-01-07T11:01:09;21.10;39.80
12060;DHT22;6091;51.432;6.880;2024-01-07T11:03:46;21.00;39.60
12060;DHT22;6091;51.432;6.880;2024-01-07T11:09:39;21.10;39.80
12060;DHT22;6091;51.432;6.880;2024-01-07T11:12:20;21.10;39.90
12060;DHT22;6091;51.432;6.880;2024-01-07T11:14:48;21.10;39.90
12060;DHT22;6091;51.432;6.880;2024-01-07T11:17:46;21.10;40.00
12060;DHT22;6091;51.432;6.880;2024-01-07T11:20:21;21.10;40.20
12060;DHT22;6091;51.432;6.880;2024-01-07T11:22:49;21.10;40.30
12060;DHT22;6091;51.432;6.880;2024-01-07T11:28:03;21.30;40.70
12060;DHT22;6091;51.432;6.880;2024-01-07T11:30:31;21.50;40.90
12060;DHT22;6091;51.432;6.880;2024-01-07T11:33:06;21.70;41.00
12060;DHT22;6091;51.432;6.880;2024-01-07T11:36:10;21.90;41.00
12060;DHT22;6091;51.432;6.880;2024-01-07T11:38:41;22.10;40.60
12060;DHT22;6091;51.432;6.880;2024-01-07T11:41:16;22.40;40.80
12060;DHT22;6091;51.432;6.880;2024-01-07T11:44:05;22.50;40.70
12060;DHT22;6091;51.432;6.880;2024-01-07T11:46:51;22.80;40.30
12060;DHT22;6091;51.432;6.880;2024-01-07T11:49:19;22.90;40.50
12060;DHT22;6091;51.432;6.880;2024-01-07T11:51:46;23.10;40.30
12060;DHT22;6091;51.432;6.880;2024-01-07T11:54:14;23.30;40.30
12060;DHT22;6091;51.432;6.880;2024-01-07T11:56:41;23.50;40.20
12060;DHT22;6091;51.432;6.880;2024-01-07T11:59:10;23.60;39.50
12060;DHT22;6091;51.432;6.880;2024-01-07T12:01:37;23.80;39.40
12060;DHT22;6091;51.432;6.880;2024-01-07T12:04:04;23.90;39.40
12060;DHT22;6091;51.432;6.880;2024-01-07T12:06:32;24.00;39.40
12060;DHT22;6091;51.432;6.880;2024-01-07T12:09:00;24.20;39.30
12060;DHT22;6091;51.432;6.880;2024-01-07T12:11:28;24.30;39.20
12060;DHT22;6091;51.432;6.880;2024-01-07T12:13:59;24.40;39.20
12060;DHT22;6091;51.432;6.880;2024-01-07T12:16:27;24.50;38.90
12060;DHT22;6091;51.432;6.880;2024-01-07T12:18:55;24.60;39.00
12060;DHT22;6091;51.432;6.880;2024-01-07T12:21:23;24.70;38.90
12060;DHT22;6091;51.432;6.880;2024-01-07T12:23:51;24.80;38.80
12060;DHT22;6091;51.432;6.880;2024-01-07T12:26:19;24.90;38.80
12060;DHT22;6091;51.432;6.880;2024-01-07T12:28:56;24.90;38.60
12060;DHT22;6091;51.432;6.880;2024-01-07T12:31:31;25.00;38.40
12060;DHT22;6091;51.432;6.880;2024-01-07T12:34:02;25.10;38.50
12060;DHT22;6091;51.432;6.880;2024-01-07T12:36:33;25.10;38.30
12060;DHT22;6091;51.432;6.880;2024-01-07T12:39:02;25.20;38.40
12060;DHT22;6091;51.432;6.880;2024-01-07T12:41:33;25.20;38.20
12060;DHT22;6091;51.432;6.880;2024-01-07T12:44:01;25.30;38.00
12060;DHT22;6091;51.432;6.880;2024-01-07T12:46:32;25.30;38.20
12060;DHT22;6091;51.432;6.880;2024-01-07T12:49:01;25.40;38.10
12060;DHT22;6091;51.432;6.880;2024-01-07T12:51:30;25.40;38.00
12060;DHT22;6091;51.432;6.880;2024-01-07T12:53:57;25.40;37.90
12060;DHT22;6091;51.432;6.880;2024-01-07T12:56:29;25.40;37.80
12060;DHT22;6091;51.432;6.880;2024-01-07T12:58:58;25.50;37.80
12060;DHT22;6091;51.432;6.880;2024-01-07T13:01:26;25.40;37.70
12060;DHT22;6091;51.432;6.880;2024-01-07T13:03:55;25.40;37.60
12060;DHT22;6091;51.432;6.880;2024-01-07T13:06:22;25.50;37.70
12060;DHT22;6091;51.432;6.880;2024-01-07T13:08:50;25.50;37.60
12060;DHT22;6091;51.432;6.880;2024-01-07T13:11:20;25.50;37.60
12060;DHT22;6091;51.432;6.880;2024-01-07T13:13:50;25.50;37.50
12060;DHT22;6091;51.432;6.880;2024-01-07T13:16:18;25.50;37.40
12060;DHT22;6091;51.432;6.880;2024-01-07T13:18:46;25.50;37.40
12060;DHT22;6091;51.432;6.880;2024-01-07T13:21:14;25.50;37.40
12060;DHT22;6091;51.432;6.880;2024-01-07T13:23:43;25.50;37.30
12060;DHT22;6091;51.432;6.880;2024-01-07T13:26:11;25.50;37.30
12060;DHT22;6091;51.432;6.880;2024-01-07T13:28:38;25.50;37.90
12060;DHT22;6091;51.432;6.880;2024-01-07T13:31:10;25.40;37.20
12060;DHT22;6091;51.432;6.880;2024-01-07T13:34:05;25.50;37.10
12060;DHT22;6091;51.432;6.880;2024-01-07T13:36:33;25.40;36.80
12060;DHT22;6091;51.432;6.880;2024-01-07T13:39:00;25.40;37.20
12060;DHT22;6091;51.432;6.880;2024-01-07T13:41:29;25.40;37.20
12060;DHT22;6091;51.432;6.880;2024-01-07T13:44:00;25.40;37.10
12060;DHT22;6091;51.432;6.880;2024-01-07T13:46:27;25.40;37.00
12060;DHT22;6091;51.432;6.880;2024-01-07T13:48:57;25.40;37.00
12060;DHT22;6091;51.432;6.880;2024-01-07T13:51:27;25.40;37.00
12060;DHT22;6091;51.432;6.880;2024-01-07T13:53:54;25.40;36.90
12060;DHT22;6091;51.432;6.880;2024-01-07T13:56:25;25.30;36.50
12060;DHT22;6091;51.432;6.880;2024-01-07T13:58:52;25.30;36.80
12060;DHT22;6091;51.432;6.880;2024-01-07T14:01:20;25.30;36.90
12060;DHT22;6091;51.432;6.880;2024-01-07T14:03:48;25.30;36.90
12060;DHT22;6091;51.432;6.880;2024-01-07T14:06:16;25.30;36.80
12060;DHT22;6091;51.432;6.880;2024-01-07T14:08:44;25.30;36.70
12060;DHT22;6091;51.432;6.880;2024-01-07T14:11:12;25.40;36.70
12060;DHT22;6091;51.432;6.880;2024-01-07T14:13:39;25.40;36.70
12060;DHT22;6091;51.432;6.880;2024-01-07T14:16:07;25.40;36.70
12060;DHT22;6091;51.432;6.880;2024-01-07T14:18:35;25.40;36.70
12060;DHT22;6091;51.432;6.880;2024-01-07T14:21:03;25.40;36.70
12060;DHT22;6091;51.432;6.880;2024-01-07T14:23:33;25.40;36.60
12060;DHT22;6091;51.432;6.880;2024-01-07T14:26:01;25.40;36.60
12060;DHT22;6091;51.432;6.880;2024-01-07T14:28:30;25.40;36.60
12060;DHT22;6091;51.432;6.880;2024-01-07T14:30:58;25.40;36.60
12060;DHT22;6091;51.432;6.880;2024-01-07T14:33:31;25.40;36.60
12060;DHT22;6091;51.432;6.880;2024-01-07T14:36:02;25.40;36.50
12060;DHT22;6091;51.432;6.880;2024-01-07T14:38:31;25.40;36.50
12060;DHT22;6091;51.432;6.880;2024-01-07T14:41:00;25.40;36.50
12060;DHT22;6091;51.432;6.880;2024-01-07T14:43:27;25.30;36.50
12060;DHT22;6091;51.432;6.880;2024-01-07T14:45:55;24.80;36.10
12060;DHT22;6091;51.432;6.880;2024-01-07T14:48:23;25.30;36.50
12060;DHT22;6091;51.432;6.880;2024-01-07T14:50:51;25.30;36.40
12060;DHT22;6091;51.432;6.880;2024-01-07T14:53:18;25.30;36.40
12060;DHT22;6091;51.432;6.880;2024-01-07T14:55:46;25.30;36.40
12060;DHT22;6091;51.432;6.880;2024-01-07T14:58:15;25.30;36.40
12060;DHT22;6091;51.432;6.880;2024-01-07T15:00:43;25.30;36.30
12060;DHT22;6091;51.432;6.880;2024-01-07T15:03:11;25.40;36.60
12060;DHT22;6091;51.432;6.880;2024-01-07T15:05:39;25.30;36.30
12060;DHT22;6091;51.432;6.880;2024-01-07T15:08:08;25.30;36.30
12060;DHT22;6091;51.432;6.880;2024-01-07T15:10:40;25.30;36.30
12060;DHT22;6091;51.432;6.880;2024-01-07T15:13:09;25.30;36.30
12060;DHT22;6091;51.432;6.880;2024-01-07T15:15:46;25.30;36.30
12060;DHT22;6091;51.432;6.880;2024-01-07T15:18:14;25.30;36.30
12060;DHT22;6091;51.432;6.880;2024-01-07T15:20:42;25.30;36.30
12060;DHT22;6091;51.432;6.880;2024-01-07T15:23:10;25.30;36.90
12060;DHT22;6091;51.432;6.880;2024-01-07T15:25:38;25.30;36.30
12060;DHT22;6091;51.432;6.880;2024-01-07T15:28:05;25.30;36.20
12060;DHT22;6091;51.432;6.880;2024-01-07T15:30:33;25.30;36.20
12060;DHT22;6091;51.432;6.880;2024-01-07T15:33:01;25.30;36.20
12060;DHT22;6091;51.432;6.880;2024-01-07T15:35:29;25.30;36.20
12060;DHT22;6091;51.432;6.880;2024-01-07T15:37:57;25.30;36.30
12060;DHT22;6091;51.432;6.880;2024-01-07T15:40:25;25.20;36.00
12060;DHT22;6091;51.432;6.880;2024-01-07T15:42:54;25.30;36.10
12060;DHT22;6091;51.432;6.880;2024-01-07T15:45:22;25.30;36.10
12060;DHT22;6091;51.432;6.880;2024-01-07T15:47:50;25.30;36.10
12060;DHT22;6091;51.432;6.880;2024-01-07T15:50:18;25.30;36.00
12060;DHT22;6091;51.432;6.880;2024-01-07T15:52:45;25.30;36.00
12060;DHT22;6091;51.432;6.880;2024-01-07T15:55:16;25.30;36.00
12060;DHT22;6091;51.432;6.880;2024-01-07T15:57:45;25.30;36.00
12060;DHT22;6091;51.432;6.880;2024-01-07T16:00:14;25.30;36.00
12060;DHT22;6091;51.432;6.880;2024-01-07T16:02:42;25.30;35.90